Time;durP1;ratioP1;P1;durP2;ratioP2;P2;SDS_P1;SDS_P2;PMS_P1;PMS_P2;Temp;Humidity;BMP_temperature;BMP_pressure;BME280_temperature;BME280_humidity;BME280_pressure;Samples;Min_cycle;Max_cycle;Signal;HPM_P1;HPM_P2
2023/01/11 00:01:11;;;;;;;60.47;4.27;;;;;;;;;;5071371;28;20995;-70
2023/01/11 00:03:38;;;;;;;59.60;3.90;;;;;;;;;;5071629;28;20447;-69
2023/01/11 00:06:07;;;;;;;58.57;3.83;;;;;;;;;;5071438;28;20447;-70
2023/01/11 00:08:34;;;;;;;61.33;4.37;;;;;;;;;;5071181;28;20518;-69
2023/01/11 00:11:01;;;;;;;60.03;3.30;;;;;;;;;;5073492;28;20950;-70
2023/01/11 00:13:28;;;;;;;58.97;3.60;;;;;;;;;;5075474;28;20517;-69
2023/01/11 00:15:57;;;;;;;58.93;3.50;;;;;;;;;;5075649;28;20469;-69
2023/01/11 00:18:24;;;;;;;60.43;3.60;;;;;;;;;;5075140;28;20443;-68
2023/01/11 00:20:51;;;;;;;59.83;3.77;;;;;;;;;;5074389;28;20490;-69
2023/01/11 00:23:18;;;;;;;59.90;4.00;;;;;;;;;;5075310;28;20466;-69
2023/01/11 00:25:45;;;;;;;58.87;3.00;;;;;;;;;;5075006;28;20947;-69
2023/01/11 00:28:12;;;;;;;58.77;3.67;;;;;;;;;;5075077;28;20530;-70
2023/01/11 00:30:40;;;;;;;60.67;3.40;;;;;;;;;;5074420;28;20810;-69
2023/01/11 00:33:11;;;;;;;59.57;3.60;;;;;;;;;;5074867;28;20470;-69
2023/01/11 00:35:38;;;;;;;61.97;3.60;;;;;;;;;;5075285;28;20443;-70
2023/01/11 00:38:05;;;;;;;59.37;4.43;;;;;;;;;;5075378;28;20443;-69
2023/01/11 00:40:32;;;;;;;61.60;3.90;;;;;;;;;;5074125;28;20489;-69
2023/01/11 00:48:42;;;;;;;61.50;3.93;;;;;;;;;;5073825;28;20428;-69
2023/01/11 00:51:09;;;;;;;58.50;3.20;;;;;;;;;;5074858;28;20521;-70
2023/01/11 00:53:36;;;;;;;58.40;3.13;;;;;;;;;;5074707;28;20443;-69
2023/01/11 00:56:03;;;;;;;58.37;3.37;;;;;;;;;;5074490;28;20451;-70
2023/01/11 00:58:30;;;;;;;60.30;2.93;;;;;;;;;;5074526;28;20534;-69
2023/01/11 01:00:57;;;;;;;57.40;3.10;;;;;;;;;;5074507;28;20482;-69
2023/01/11 01:03:24;;;;;;;60.70;3.20;;;;;;;;;;5074564;28;20467;-69
2023/01/11 01:05:56;;;;;;;61.47;3.60;;;;;;;;;;5074488;28;20447;-69
2023/01/11 01:08:23;;;;;;;60.67;3.17;;;;;;;;;;5074287;28;20457;-70
2023/01/11 01:10:52;;;;;;;58.47;2.80;;;;;;;;;;5074143;28;20444;-69
2023/01/11 01:16:04;;;;;;;58.50;3.40;;;;;;;;;;5074339;28;20423;-69
2023/01/11 01:18:31;;;;;;;58.97;3.30;;;;;;;;;;5074062;28;20447;-69
2023/01/11 01:20:59;;;;;;;60.17;3.53;;;;;;;;;;5074108;28;20489;-69
2023/01/11 01:23:26;;;;;;;59.10;3.10;;;;;;;;;;5073483;28;20506;-69
2023/01/11 01:25:53;;;;;;;61.00;3.37;;;;;;;;;;5074061;28;20615;-69
2023/01/11 01:28:21;;;;;;;66.63;3.67;;;;;;;;;;5073880;28;20456;-70
2023/01/11 01:30:50;;;;;;;58.70;2.97;;;;;;;;;;5073373;28;20447;-70
2023/01/11 01:33:17;;;;;;;59.03;3.10;;;;;;;;;;5073915;28;21045;-70
2023/01/11 01:35:44;;;;;;;58.90;3.20;;;;;;;;;;5073923;28;20452;-70
2023/01/11 01:38:13;;;;;;;59.27;3.03;;;;;;;;;;5073838;28;20962;-69
2023/01/11 01:40:41;;;;;;;57.90;3.30;;;;;;;;;;5073279;28;20451;-70
2023/01/11 01:43:09;;;;;;;58.87;3.23;;;;;;;;;;5073680;28;20996;-69
2023/01/11 01:45:37;;;;;;;57.70;3.07;;;;;;;;;;5073708;28;20948;-69
2023/01/11 01:48:05;;;;;;;58.60;3.20;;;;;;;;;;5073778;28;20443;-69
2023/01/11 01:50:33;;;;;;;59.20;3.43;;;;;;;;;;5073171;28;20455;-69
2023/01/11 01:53:02;;;;;;;57.60;2.90;;;;;;;;;;5073502;28;20962;-69
2023/01/11 01:58:36;;;;;;;57.57;2.80;;;;;;;;;;5069068;28;20536;-69
2023/01/11 02:03:44;;;;;;;60.93;3.33;;;;;;;;;;5073130;28;20440;-70
2023/01/11 02:06:12;;;;;;;58.27;3.13;;;;;;;;;;5073387;28;20455;-69
2023/01/11 02:08:41;;;;;;;59.17;2.77;;;;;;;;;;5072547;28;20454;-70
2023/01/11 02:11:28;;;;;;;57.90;2.80;;;;;;;;;;5073176;28;20811;-69
2023/01/11 02:13:57;;;;;;;59.77;3.40;;;;;;;;;;5073295;28;20931;-69
2023/01/11 02:16:24;;;;;;;58.37;2.90;;;;;;;;;;5073254;28;20447;-69
2023/01/11 02:18:51;;;;;;;57.47;3.23;;;;;;;;;;5072444;28;20443;-69
2023/01/11 02:21:22;;;;;;;61.97;3.00;;;;;;;;;;5072902;28;20855;-70
2023/01/11 02:24:01;;;;;;;58.37;2.70;;;;;;;;;;5072951;28;20458;-69
2023/01/11 02:26:50;;;;;;;58.17;3.00;;;;;;;;;;5072898;28;20463;-69
2023/01/11 02:29:23;;;;;;;57.60;2.97;;;;;;;;;;5067182;28;20978;-70
2023/01/11 02:31:54;;;;;;;58.27;2.87;;;;;;;;;;5072855;28;20467;-69
2023/01/11 02:34:27;;;;;;;56.73;2.30;;;;;;;;;;5071739;28;20783;-70
2023/01/11 02:37:00;;;;;;;57.30;2.60;;;;;;;;;;5072620;28;20443;-69
2023/01/11 02:39:32;;;;;;;57.70;2.60;;;;;;;;;;5072063;28;20817;-69
2023/01/11 02:45:03;;;;;;;59.60;3.20;;;;;;;;;;5068829;28;20422;-69
2023/01/11 02:47:34;;;;;;;58.20;2.30;;;;;;;;;;5072471;28;20821;-69
2023/01/11 02:50:04;;;;;;;57.70;2.50;;;;;;;;;;5071883;28;20458;-69
2023/01/11 02:52:36;;;;;;;56.63;2.40;;;;;;;;;;5071991;28;20471;-70
2023/01/11 02:55:04;;;;;;;57.07;2.23;;;;;;;;;;5072496;28;20472;-69
2023/01/11 02:57:33;;;;;;;57.67;2.50;;;;;;;;;;5072463;28;20818;-69
2023/01/11 03:00:01;;;;;;;57.57;2.70;;;;;;;;;;5071447;28;20947;-69
2023/01/11 03:02:29;;;;;;;56.50;2.37;;;;;;;;;;5072311;28;20493;-69
2023/01/11 03:04:56;;;;;;;59.80;2.70;;;;;;;;;;5072445;28;20454;-70
2023/01/11 03:07:30;;;;;;;57.23;2.50;;;;;;;;;;5072257;28;20448;-69
2023/01/11 03:10:04;;;;;;;57.43;2.67;;;;;;;;;;5071430;28;20450;-69
2023/01/11 03:15:35;;;;;;;57.77;2.30;;;;;;;;;;5072180;28;20554;-69
2023/01/11 03:18:06;;;;;;;57.43;2.50;;;;;;;;;;5072019;28;20534;-69
2023/01/11 03:20:35;;;;;;;57.10;2.50;;;;;;;;;;5071523;28;20810;-69
2023/01/11 03:23:09;;;;;;;57.80;2.60;;;;;;;;;;5071848;28;21015;-69
2023/01/11 03:25:41;;;;;;;57.77;2.50;;;;;;;;;;5072093;28;20455;-69
2023/01/11 03:28:12;;;;;;;57.80;2.47;;;;;;;;;;5072070;28;20826;-69
2023/01/11 03:30:47;;;;;;;57.73;2.60;;;;;;;;;;5071457;28;20447;-70
2023/01/11 03:33:18;;;;;;;57.43;2.40;;;;;;;;;;5071774;28;20466;-69
2023/01/11 03:35:47;;;;;;;61.23;2.30;;;;;;;;;;5071809;28;20546;-69
2023/01/11 03:38:18;;;;;;;57.90;2.30;;;;;;;;;;5071978;28;20452;-69
2023/01/11 03:40:47;;;;;;;57.73;2.23;;;;;;;;;;5071266;28;20458;-69
2023/01/11 03:43:15;;;;;;;56.97;2.40;;;;;;;;;;5071644;28;20494;-69
2023/01/11 03:45:50;;;;;;;59.37;2.33;;;;;;;;;;5071277;28;20459;-70
2023/01/11 03:48:18;;;;;;;57.77;2.40;;;;;;;;;;5071822;28;20458;-70
2023/01/11 03:50:47;;;;;;;57.50;2.50;;;;;;;;;;5071118;28;20498;-70
2023/01/11 03:53:15;;;;;;;57.03;2.43;;;;;;;;;;5071740;28;20560;-69
2023/01/11 03:55:44;;;;;;;57.00;2.20;;;;;;;;;;5071753;28;20828;-69
2023/01/11 03:58:12;;;;;;;57.90;2.50;;;;;;;;;;5071433;28;20458;-69
2023/01/11 04:00:39;;;;;;;58.90;2.73;;;;;;;;;;5071097;28;20473;-69
2023/01/11 04:03:11;;;;;;;57.17;2.50;;;;;;;;;;5071600;28;20487;-69
2023/01/11 04:05:39;;;;;;;57.50;2.53;;;;;;;;;;5071522;28;20981;-70
2023/01/11 04:08:06;;;;;;;56.37;2.20;;;;;;;;;;5071522;28;20447;-70
2023/01/11 04:10:33;;;;;;;57.07;2.23;;;;;;;;;;5070764;28;20497;-69
2023/01/11 04:13:00;;;;;;;57.80;2.40;;;;;;;;;;5071640;28;20469;-69
2023/01/11 04:15:29;;;;;;;57.07;2.60;;;;;;;;;;5071435;28;20962;-69
2023/01/11 04:18:03;;;;;;;56.67;2.30;;;;;;;;;;5071468;28;20455;-69
2023/01/11 04:20:31;;;;;;;57.17;2.43;;;;;;;;;;5070752;28;20457;-69
2023/01/11 04:22:58;;;;;;;57.40;2.30;;;;;;;;;;5071203;28;20487;-70
2023/01/11 04:25:26;;;;;;;57.00;2.33;;;;;;;;;;5071247;28;20471;-69
2023/01/11 04:27:53;;;;;;;57.90;2.50;;;;;;;;;;5071547;28;20447;-69
2023/01/11 04:30:20;;;;;;;57.60;2.60;;;;;;;;;;5070851;28;20455;-70
2023/01/11 04:32:47;;;;;;;57.40;2.47;;;;;;;;;;5071298;28;20463;-69
2023/01/11 04:35:14;;;;;;;56.70;2.17;;;;;;;;;;5071235;28;20451;-69
2023/01/11 04:37:43;;;;;;;57.77;2.27;;;;;;;;;;5071519;28;20443;-69
2023/01/11 04:40:10;;;;;;;57.37;2.33;;;;;;;;;;5070431;28;20447;-69
2023/01/11 04:42:36;;;;;;;56.87;2.50;;;;;;;;;;5071017;28;21121;-69
2023/01/11 04:45:05;;;;;;;58.47;2.40;;;;;;;;;;5071131;28;20450;-69
2023/01/11 04:47:32;;;;;;;57.70;2.40;;;;;;;;;;5071145;28;20951;-69
2023/01/11 04:49:59;;;;;;;56.77;2.30;;;;;;;;;;5070392;28;20482;-69
2023/01/11 04:52:26;;;;;;;57.30;2.30;;;;;;;;;;5070993;28;20463;-69
2023/01/11 04:54:55;;;;;;;57.47;2.37;;;;;;;;;;5071460;28;20450;-69
2023/01/11 04:57:23;;;;;;;57.43;2.23;;;;;;;;;;5071685;28;20487;-69
2023/01/11 04:59:50;;;;;;;57.20;2.37;;;;;;;;;;5073906;28;20881;-69
2023/01/11 05:02:18;;;;;;;57.97;2.70;;;;;;;;;;5074432;28;20491;-69
2023/01/11 05:04:45;;;;;;;56.73;2.23;;;;;;;;;;5074407;28;20449;-69
2023/01/11 05:07:12;;;;;;;57.13;2.47;;;;;;;;;;5074402;28;21009;-69
2023/01/11 05:09:39;;;;;;;57.20;2.63;;;;;;;;;;5073795;28;20542;-70
2023/01/11 05:12:08;;;;;;;56.70;2.40;;;;;;;;;;5074801;28;20464;-69
2023/01/11 05:14:35;;;;;;;57.07;2.60;;;;;;;;;;5074332;28;20952;-69
2023/01/11 05:17:02;;;;;;;56.77;2.30;;;;;;;;;;5074303;28;20448;-69
2023/01/11 05:19:29;;;;;;;56.93;2.50;;;;;;;;;;5073451;28;20877;-70
2023/01/11 05:21:56;;;;;;;56.97;2.53;;;;;;;;;;5074232;28;20494;-69
2023/01/11 05:24:23;;;;;;;56.40;2.20;;;;;;;;;;5074205;28;20445;-69
2023/01/11 05:26:52;;;;;;;56.93;2.33;;;;;;;;;;5074272;28;20841;-69
2023/01/11 05:29:20;;;;;;;57.27;2.50;;;;;;;;;;5073456;28;20460;-69
2023/01/11 05:31:47;;;;;;;58.57;2.60;;;;;;;;;;5073858;28;20471;-69
2023/01/11 05:34:15;;;;;;;57.17;2.30;;;;;;;;;;5073967;28;20465;-69
2023/01/11 05:36:42;;;;;;;56.87;2.50;;;;;;;;;;5073875;28;20452;-69
2023/01/11 05:39:09;;;;;;;57.47;2.63;;;;;;;;;;5073388;28;20454;-70
2023/01/11 05:41:36;;;;;;;57.70;2.80;;;;;;;;;;5073812;28;20501;-69
2023/01/11 05:46:50;;;;;;;57.17;2.37;;;;;;;;;;5074044;28;20403;-69
2023/01/11 05:49:17;;;;;;;57.37;2.43;;;;;;;;;;5073141;28;20478;-70
2023/01/11 05:51:44;;;;;;;57.27;2.37;;;;;;;;;;5073696;28;20460;-70
2023/01/11 05:54:13;;;;;;;56.97;2.63;;;;;;;;;;5073817;28;20537;-70
2023/01/11 05:56:41;;;;;;;58.57;2.80;;;;;;;;;;5073547;28;20451;-69
2023/01/11 05:59:08;;;;;;;57.57;2.53;;;;;;;;;;5072498;28;20447;-69
2023/01/11 06:01:35;;;;;;;57.23;2.60;;;;;;;;;;5073476;28;20475;-69
2023/01/11 06:04:04;;;;;;;56.80;2.20;;;;;;;;;;5073369;28;20485;-69
2023/01/11 06:06:31;;;;;;;58.73;2.47;;;;;;;;;;5073343;28;20443;-69
2023/01/11 06:08:58;;;;;;;58.93;2.60;;;;;;;;;;5072349;28;20451;-69
2023/01/11 06:11:25;;;;;;;57.20;2.40;;;;;;;;;;5073031;28;20845;-69
2023/01/11 06:13:52;;;;;;;58.30;2.60;;;;;;;;;;5073359;28;20450;-70
2023/01/11 06:16:21;;;;;;;56.87;2.10;;;;;;;;;;5073259;28;20454;-69
2023/01/11 06:18:49;;;;;;;57.10;2.53;;;;;;;;;;5072383;28;20486;-69
2023/01/11 06:21:17;;;;;;;59.00;2.37;;;;;;;;;;5072930;28;20470;-69
2023/01/11 06:23:45;;;;;;;56.87;2.30;;;;;;;;;;5072805;28;20486;-69
2023/01/11 06:26:13;;;;;;;57.43;2.40;;;;;;;;;;5072689;28;20455;-69
2023/01/11 06:28:41;;;;;;;59.67;3.10;;;;;;;;;;5072271;28;21034;-70
2023/01/11 06:31:08;;;;;;;58.00;3.10;;;;;;;;;;5072781;28;20486;-69
2023/01/11 06:33:35;;;;;;;59.33;2.50;;;;;;;;;;5072853;28;20456;-69
2023/01/11 06:36:04;;;;;;;57.87;2.60;;;;;;;;;;5072877;28;20447;-69
2023/01/11 06:38:33;;;;;;;58.17;3.20;;;;;;;;;;5072245;28;20447;-69
2023/01/11 06:41:01;;;;;;;58.77;3.40;;;;;;;;;;5073068;28;20481;-69
2023/01/11 06:43:28;;;;;;;57.50;2.70;;;;;;;;;;5072598;28;21029;-70
2023/01/11 06:45:55;;;;;;;59.90;3.30;;;;;;;;;;5072652;28;20455;-69
2023/01/11 06:48:23;;;;;;;58.47;3.60;;;;;;;;;;5072418;28;20825;-69
2023/01/11 06:50:51;;;;;;;57.50;3.23;;;;;;;;;;5071714;28;20456;-70
2023/01/11 06:53:18;;;;;;;57.50;2.80;;;;;;;;;;5072218;28;20469;-70
2023/01/11 06:55:49;;;;;;;59.70;3.40;;;;;;;;;;5072201;28;20447;-69
2023/01/11 06:58:16;;;;;;;58.10;3.20;;;;;;;;;;5072429;28;20466;-70
2023/01/11 07:00:43;;;;;;;57.63;3.17;;;;;;;;;;5071967;28;20462;-69
2023/01/11 07:03:11;;;;;;;57.83;2.93;;;;;;;;;;5072388;28;20495;-70
2023/01/11 07:05:38;;;;;;;57.80;3.20;;;;;;;;;;5072162;28;20444;-69
2023/01/11 07:08:06;;;;;;;58.97;3.23;;;;;;;;;;5072392;28;20482;-69
2023/01/11 07:10:33;;;;;;;57.97;3.43;;;;;;;;;;5071563;28;20447;-69
2023/01/11 07:13:01;;;;;;;60.10;2.90;;;;;;;;;;5072374;28;20467;-69
2023/01/11 07:15:28;;;;;;;72.00;4.20;;;;;;;;;;5072113;28;20794;-69
2023/01/11 07:17:56;;;;;;;80.63;8.60;;;;;;;;;;5072038;28;20447;-69
2023/01/11 07:20:23;;;;;;;68.27;4.80;;;;;;;;;;5070603;28;20478;-70
2023/01/11 07:22:50;;;;;;;59.13;3.80;;;;;;;;;;5072320;28;20487;-69
2023/01/11 07:25:17;;;;;;;61.40;3.50;;;;;;;;;;5072066;28;20474;-70
2023/01/11 07:27:44;;;;;;;59.90;3.03;;;;;;;;;;5072015;28;20816;-69
2023/01/11 07:30:13;;;;;;;58.73;3.20;;;;;;;;;;5071202;28;20447;-70
2023/01/11 07:32:40;;;;;;;58.27;3.40;;;;;;;;;;5071709;28;20470;-69
2023/01/11 07:35:08;;;;;;;60.47;4.27;;;;;;;;;;5072097;28;20543;-70
2023/01/11 07:37:37;;;;;;;59.40;3.57;;;;;;;;;;5071983;28;20454;-70
2023/01/11 07:40:05;;;;;;;67.10;4.97;;;;;;;;;;5071080;28;20452;-69
2023/01/11 07:45:18;;;;;;;59.20;3.73;;;;;;;;;;5071904;28;20419;-69
2023/01/11 07:47:45;;;;;;;61.37;4.20;;;;;;;;;;5072172;28;20443;-70
2023/01/11 07:50:12;;;;;;;60.33;3.67;;;;;;;;;;5070819;28;20454;-69
2023/01/11 07:52:39;;;;;;;59.27;3.40;;;;;;;;;;5071281;28;20467;-69
2023/01/11 07:55:06;;;;;;;58.40;3.30;;;;;;;;;;5071786;28;20952;-70
2023/01/11 07:57:35;;;;;;;57.50;2.83;;;;;;;;;;5071697;28;20451;-70
2023/01/11 08:00:02;;;;;;;58.23;3.00;;;;;;;;;;5070895;28;20451;-70
2023/01/11 08:02:30;;;;;;;57.07;2.53;;;;;;;;;;5071395;28;20471;-69
2023/01/11 08:04:58;;;;;;;58.20;3.00;;;;;;;;;;5071714;28;20458;-69
2023/01/11 08:07:25;;;;;;;58.83;2.87;;;;;;;;;;5071484;28;20500;-69
2023/01/11 08:09:52;;;;;;;57.97;2.97;;;;;;;;;;5070581;28;20447;-70
2023/01/11 08:15:04;;;;;;;57.07;2.73;;;;;;;;;;5071705;28;20418;-69
2023/01/11 08:17:34;;;;;;;58.00;2.73;;;;;;;;;;5071598;28;20447;-69
2023/01/11 08:20:01;;;;;;;59.67;2.73;;;;;;;;;;5070795;28;20888;-69
2023/01/11 08:22:28;;;;;;;57.80;2.43;;;;;;;;;;5071315;28;20467;-70
2023/01/11 08:24:55;;;;;;;58.37;2.77;;;;;;;;;;5071028;28;20969;-70
2023/01/11 08:27:23;;;;;;;57.87;2.97;;;;;;;;;;5071540;28;20443;-70
2023/01/11 08:29:50;;;;;;;57.60;2.80;;;;;;;;;;5070485;28;20454;-69
2023/01/11 08:32:17;;;;;;;57.70;3.00;;;;;;;;;;5073381;28;20557;-69
2023/01/11 08:34:45;;;;;;;58.70;3.33;;;;;;;;;;5075240;28;20438;-69
2023/01/11 08:37:13;;;;;;;59.23;3.20;;;;;;;;;;5074950;28;20443;-70
2023/01/11 08:39:40;;;;;;;58.50;3.40;;;;;;;;;;5074438;28;20455;-69
2023/01/11 08:42:07;;;;;;;58.97;3.43;;;;;;;;;;5075032;28;20474;-69
2023/01/11 08:44:34;;;;;;;62.57;4.53;;;;;;;;;;5074706;28;20486;-69
2023/01/11 08:47:01;;;;;;;58.30;3.70;;;;;;;;;;5074737;28;20947;-70
2023/01/11 08:49:29;;;;;;;58.67;3.37;;;;;;;;;;5074036;28;20465;-70
2023/01/11 08:51:57;;;;;;;58.90;3.20;;;;;;;;;;5074795;28;20500;-69
2023/01/11 08:54:25;;;;;;;61.80;3.70;;;;;;;;;;5074946;28;20962;-70
2023/01/11 08:56:52;;;;;;;58.53;3.27;;;;;;;;;;5074966;28;20443;-68
2023/01/11 08:59:20;;;;;;;59.27;3.90;;;;;;;;;;5073796;28;20940;-70
2023/01/11 09:01:48;;;;;;;66.83;4.23;;;;;;;;;;5074734;28;20521;-70
2023/01/11 09:04:15;;;;;;;59.73;3.93;;;;;;;;;;5074516;28;20937;-69
2023/01/11 09:06:42;;;;;;;69.47;4.20;;;;;;;;;;5074615;28;20439;-70
2023/01/11 09:09:10;;;;;;;57.30;3.10;;;;;;;;;;5074100;28;20449;-69
2023/01/11 09:11:57;;;;;;;59.70;3.63;;;;;;;;;;5074325;28;20982;-69
2023/01/11 09:14:25;;;;;;;57.97;3.10;;;;;;;;;;5074466;28;20443;-70
2023/01/11 09:16:52;;;;;;;58.67;3.57;;;;;;;;;;5074487;28;20961;-70
2023/01/11 09:19:20;;;;;;;60.80;3.80;;;;;;;;;;5073686;28;20820;-69
2023/01/11 09:21:47;;;;;;;61.17;3.40;;;;;;;;;;5074178;28;20980;-69
2023/01/11 09:24:15;;;;;;;60.93;4.10;;;;;;;;;;5073963;28;20517;-69
2023/01/11 09:26:43;;;;;;;59.60;3.37;;;;;;;;;;5074147;28;20447;-69
2023/01/11 09:29:10;;;;;;;58.00;2.90;;;;;;;;;;5073346;28;20435;-70
2023/01/11 09:31:37;;;;;;;58.20;3.00;;;;;;;;;;5073900;28;21049;-70
2023/01/11 09:34:05;;;;;;;58.10;2.90;;;;;;;;;;5074201;28;20505;-70
2023/01/11 09:36:34;;;;;;;58.50;3.00;;;;;;;;;;5074155;28;20538;-69
2023/01/11 09:39:06;;;;;;;58.47;2.93;;;;;;;;;;5073227;28;20447;-70
2023/01/11 09:41:43;;;;;;;59.90;3.30;;;;;;;;;;5073828;28;21022;-71
2023/01/11 09:44:15;;;;;;;58.50;3.30;;;;;;;;;;5073333;28;20572;-69
2023/01/11 09:46:43;;;;;;;58.80;3.03;;;;;;;;;;5073778;28;20452;-69
2023/01/11 09:49:13;;;;;;;58.13;3.20;;;;;;;;;;5073062;28;20455;-69
2023/01/11 09:51:40;;;;;;;58.70;2.90;;;;;;;;;;5073806;28;20816;-69
2023/01/11 09:54:09;;;;;;;57.80;3.00;;;;;;;;;;5073705;28;20453;-70
2023/01/11 09:56:42;;;;;;;57.90;3.27;;;;;;;;;;5073538;28;20508;-69
2023/01/11 09:59:19;;;;;;;58.10;3.30;;;;;;;;;;5072788;28;20617;-69
2023/01/11 10:01:49;;;;;;;57.47;2.90;;;;;;;;;;5073581;28;20520;-69
2023/01/11 10:04:32;;;;;;;57.43;2.83;;;;;;;;;;5073518;28;20510;-69
2023/01/11 10:07:15;;;;;;;57.73;2.70;;;;;;;;;;5073275;28;20448;-70
2023/01/11 10:09:46;;;;;;;61.10;3.97;;;;;;;;;;5071033;28;20460;-69
2023/01/11 10:12:18;;;;;;;57.90;3.03;;;;;;;;;;5073099;28;20472;-69
2023/01/11 10:14:55;;;;;;;58.23;2.90;;;;;;;;;;5073386;28;20454;-69
2023/01/11 10:17:29;;;;;;;61.03;2.70;;;;;;;;;;5073197;28;20542;-70
2023/01/11 10:20:00;;;;;;;58.07;2.90;;;;;;;;;;5072576;28;20447;-69
2023/01/11 10:22:32;;;;;;;58.33;3.23;;;;;;;;;;5073160;28;20463;-70
2023/01/11 10:25:02;;;;;;;57.50;3.00;;;;;;;;;;5073043;28;20487;-69
2023/01/11 10:27:31;;;;;;;57.33;2.30;;;;;;;;;;5073286;28;20463;-70
2023/01/11 10:30:12;;;;;;;58.40;3.10;;;;;;;;;;5072088;28;20530;-70
2023/01/11 10:32:52;;;;;;;58.17;2.90;;;;;;;;;;5073054;28;20478;-69
2023/01/11 10:35:44;;;;;;;58.20;2.70;;;;;;;;;;5072850;28;20509;-69
2023/01/11 10:38:29;;;;;;;60.37;2.97;;;;;;;;;;5072528;28;20487;-68
2023/01/11 10:41:05;;;;;;;58.40;3.43;;;;;;;;;;5072680;28;20538;-67
2023/01/11 10:43:34;;;;;;;59.43;3.00;;;;;;;;;;5072471;28;20995;-69
2023/01/11 10:46:06;;;;;;;58.30;3.20;;;;;;;;;;5072602;28;20448;-68
2023/01/11 10:48:34;;;;;;;58.63;2.80;;;;;;;;;;5072053;28;20452;-67
2023/01/11 10:51:04;;;;;;;58.17;3.17;;;;;;;;;;5072408;28;20458;-68
2023/01/11 10:53:35;;;;;;;57.80;2.80;;;;;;;;;;5072531;28;20469;-68
2023/01/11 10:56:06;;;;;;;59.00;3.03;;;;;;;;;;5071950;28;20454;-69
2023/01/11 10:58:44;;;;;;;57.80;2.90;;;;;;;;;;5071883;28;21088;-69
2023/01/11 11:01:19;;;;;;;58.47;2.93;;;;;;;;;;5072191;28;20504;-67
2023/01/11 11:04:11;;;;;;;58.20;2.83;;;;;;;;;;5072681;28;20574;-68
2023/01/11 11:06:42;;;;;;;57.37;2.77;;;;;;;;;;5072290;28;20458;-68
2023/01/11 11:09:15;;;;;;;58.63;2.60;;;;;;;;;;5071535;28;20453;-68
2023/01/11 11:11:47;;;;;;;59.47;2.50;;;;;;;;;;5072073;28;20533;-67
2023/01/11 11:14:16;;;;;;;57.70;2.53;;;;;;;;;;5072476;28;20808;-68
2023/01/11 11:16:54;;;;;;;57.90;2.70;;;;;;;;;;5072191;28;20443;-68
2023/01/11 11:19:24;;;;;;;57.57;2.70;;;;;;;;;;5071311;28;20834;-68
2023/01/11 11:21:52;;;;;;;57.90;2.67;;;;;;;;;;5071836;28;20475;-68
2023/01/11 11:24:21;;;;;;;58.37;3.00;;;;;;;;;;5071760;28;20512;-68
2023/01/11 11:26:52;;;;;;;57.73;2.70;;;;;;;;;;5072111;28;20451;-68
2023/01/11 11:29:21;;;;;;;58.43;2.63;;;;;;;;;;5071180;28;20952;-68
2023/01/11 11:31:51;;;;;;;57.80;2.60;;;;;;;;;;5072079;28;20551;-68
2023/01/11 11:34:19;;;;;;;57.33;2.60;;;;;;;;;;5071845;28;20445;-68
2023/01/11 11:36:47;;;;;;;57.87;2.40;;;;;;;;;;5072335;28;20954;-68
2023/01/11 11:39:19;;;;;;;57.23;2.53;;;;;;;;;;5071147;28;20447;-68
2023/01/11 11:41:48;;;;;;;57.67;2.57;;;;;;;;;;5071836;28;20467;-68
2023/01/11 11:44:17;;;;;;;57.70;2.57;;;;;;;;;;5071669;28;21053;-68
2023/01/11 11:46:56;;;;;;;58.43;2.30;;;;;;;;;;5071769;28;20454;-68
2023/01/11 11:49:25;;;;;;;57.27;2.40;;;;;;;;;;5070912;28;20501;-68
2023/01/11 11:51:52;;;;;;;59.03;2.70;;;;;;;;;;5071710;28;20553;-68
2023/01/11 11:54:22;;;;;;;57.03;2.33;;;;;;;;;;5071993;28;20439;-69
2023/01/11 11:56:49;;;;;;;59.17;2.63;;;;;;;;;;5071669;28;20443;-68
2023/01/11 11:59:18;;;;;;;57.50;2.50;;;;;;;;;;5070829;28;20452;-68
2023/01/11 12:01:47;;;;;;;57.90;2.50;;;;;;;;;;5071433;28;20467;-68
2023/01/11 12:04:16;;;;;;;58.00;2.47;;;;;;;;;;5071667;28;20514;-68
2023/01/11 12:06:45;;;;;;;57.13;2.50;;;;;;;;;;5072752;28;20488;-68
2023/01/11 12:09:17;;;;;;;57.43;2.43;;;;;;;;;;5074880;28;20457;-68
2023/01/11 12:11:47;;;;;;;57.70;2.47;;;;;;;;;;5075541;28;20470;-68
2023/01/11 12:14:17;;;;;;;57.73;2.97;;;;;;;;;;5075724;28;20434;-68
2023/01/11 12:16:45;;;;;;;59.50;3.10;;;;;;;;;;5075646;28;20443;-68
2023/01/11 12:19:29;;;;;;;57.80;2.90;;;;;;;;;;5074804;28;20451;-69
2023/01/11 12:22:11;;;;;;;57.27;2.37;;;;;;;;;;5075247;28;20976;-68
2023/01/11 12:24:38;;;;;;;58.43;2.93;;;;;;;;;;5075026;28;20517;-68
2023/01/11 12:27:08;;;;;;;57.37;2.60;;;;;;;;;;5075475;28;20443;-68
2023/01/11 12:29:45;;;;;;;58.03;3.20;;;;;;;;;;5074609;28;20447;-68
2023/01/11 12:32:27;;;;;;;58.30;2.70;;;;;;;;;;5075129;28;21057;-68
2023/01/11 12:35:05;;;;;;;57.60;2.70;;;;;;;;;;5062498;28;20451;-68
2023/01/11 12:37:46;;;;;;;58.10;2.70;;;;;;;;;;5074899;28;20443;-67
2023/01/11 12:40:18;;;;;;;57.90;2.77;;;;;;;;;;5074413;28;20449;-67
2023/01/11 12:43:01;;;;;;;57.87;2.87;;;;;;;;;;5075021;28;20459;-68
2023/01/11 12:45:34;;;;;;;58.00;2.80;;;;;;;;;;5074982;28;20483;-68
2023/01/11 12:48:07;;;;;;;58.53;2.60;;;;;;;;;;5074968;28;20451;-68
2023/01/11 12:50:38;;;;;;;57.80;2.93;;;;;;;;;;5074038;28;20462;-68
2023/01/11 12:53:15;;;;;;;58.70;3.00;;;;;;;;;;5074785;28;20467;-67
2023/01/11 12:55:53;;;;;;;64.20;2.73;;;;;;;;;;5074652;28;20438;-68
2023/01/11 12:58:23;;;;;;;57.90;2.80;;;;;;;;;;5074798;28;20457;-68
2023/01/11 13:00:59;;;;;;;58.03;2.80;;;;;;;;;;5074292;28;20451;-68
2023/01/11 13:03:41;;;;;;;58.67;3.20;;;;;;;;;;5074549;28;20477;-67
2023/01/11 13:06:12;;;;;;;57.27;2.70;;;;;;;;;;5061750;28;20495;-67
2023/01/11 13:08:48;;;;;;;59.60;2.70;;;;;;;;;;5073912;28;20895;-68
2023/01/11 13:11:34;;;;;;;57.37;2.57;;;;;;;;;;5074458;28;20530;-67
2023/01/11 13:14:04;;;;;;;58.10;2.60;;;;;;;;;;5074460;28;20868;-68
2023/01/11 13:16:33;;;;;;;58.63;2.80;;;;;;;;;;5074261;28;20454;-67
2023/01/11 13:19:02;;;;;;;58.47;2.70;;;;;;;;;;5072606;28;20444;-67
2023/01/11 13:21:32;;;;;;;57.70;2.80;;;;;;;;;;5074314;28;20448;-67
2023/01/11 13:24:02;;;;;;;59.43;2.83;;;;;;;;;;5074117;28;20452;-67
2023/01/11 13:26:32;;;;;;;57.60;2.70;;;;;;;;;;5074023;28;20620;-67
2023/01/11 13:29:01;;;;;;;58.53;2.70;;;;;;;;;;5073266;28;20439;-67
2023/01/11 13:31:28;;;;;;;58.03;2.90;;;;;;;;;;5074169;28;20444;-67
2023/01/11 13:33:59;;;;;;;58.47;3.17;;;;;;;;;;5073996;28;20939;-67
2023/01/11 13:36:27;;;;;;;59.50;2.53;;;;;;;;;;5073982;28;20542;-67
2023/01/11 13:38:56;;;;;;;60.67;3.20;;;;;;;;;;5073304;28;20809;-68
2023/01/11 13:41:28;;;;;;;58.53;3.20;;;;;;;;;;5073819;28;20453;-67
2023/01/11 13:43:57;;;;;;;57.37;2.80;;;;;;;;;;5073852;28;20458;-67
2023/01/11 13:46:37;;;;;;;58.00;3.07;;;;;;;;;;5073887;28;20509;-67
2023/01/11 13:49:07;;;;;;;57.60;2.70;;;;;;;;;;5073045;28;20457;-68
2023/01/11 13:51:39;;;;;;;59.73;3.40;;;;;;;;;;5073871;28;20487;-68
2023/01/11 13:54:12;;;;;;;58.00;2.67;;;;;;;;;;5073574;28;20452;-68
2023/01/11 13:56:42;;;;;;;57.90;2.93;;;;;;;;;;5073676;28;20451;-68
2023/01/11 13:59:12;;;;;;;58.87;3.10;;;;;;;;;;5072968;28;20827;-68
2023/01/11 14:01:43;;;;;;;58.70;3.60;;;;;;;;;;5073509;28;20471;-68
2023/01/11 14:04:12;;;;;;;58.17;3.13;;;;;;;;;;5073369;28;20451;-68
2023/01/11 14:06:48;;;;;;;59.63;3.07;;;;;;;;;;5073262;28;20456;-68
2023/01/11 14:09:39;;;;;;;59.87;3.17;;;;;;;;;;5073020;28;20457;-68
2023/01/11 14:12:09;;;;;;;60.07;3.70;;;;;;;;;;5016770;28;20466;-68
2023/01/11 14:14:48;;;;;;;57.83;3.40;;;;;;;;;;5073452;28;20619;-68
2023/01/11 14:17:26;;;;;;;60.67;2.90;;;;;;;;;;5073464;28;20431;-68
2023/01/11 14:19:55;;;;;;;62.67;3.80;;;;;;;;;;5071494;28;20443;-67
2023/01/11 14:22:26;;;;;;;58.90;3.00;;;;;;;;;;5072923;28;20473;-68
2023/01/11 14:24:57;;;;;;;58.37;3.27;;;;;;;;;;5073128;28;20494;-68
2023/01/11 14:27:35;;;;;;;57.67;2.70;;;;;;;;;;5072935;28;20443;-68
2023/01/11 14:30:20;;;;;;;57.53;2.60;;;;;;;;;;5072292;28;20486;-68
2023/01/11 14:33:11;;;;;;;57.70;2.50;;;;;;;;;;5072815;28;20468;-68
2023/01/11 14:35:44;;;;;;;57.47;2.77;;;;;;;;;;5072782;28;20446;-68
2023/01/11 14:38:35;;;;;;;57.53;2.60;;;;;;;;;;5072700;28;20479;-67
2023/01/11 14:41:34;;;;;;;57.40;2.37;;;;;;;;;;5072893;28;20456;-67
2023/01/11 14:44:13;;;;;;;57.40;2.40;;;;;;;;;;5072811;28;20451;-67
2023/01/11 14:46:51;;;;;;;57.67;2.50;;;;;;;;;;5072707;28;20479;-68
2023/01/11 14:49:24;;;;;;;57.90;2.80;;;;;;;;;;5071851;28;20446;-68
2023/01/11 14:51:55;;;;;;;58.87;2.90;;;;;;;;;;5072695;28;20467;-68
2023/01/11 14:54:24;;;;;;;57.43;2.23;;;;;;;;;;5072328;28;20443;-67
2023/01/11 14:56:53;;;;;;;57.27;2.50;;;;;;;;;;5072603;28;20452;-67
2023/01/11 14:59:26;;;;;;;58.00;2.97;;;;;;;;;;5071598;28;20969;-68
2023/01/11 15:02:23;;;;;;;57.80;2.67;;;;;;;;;;5072354;28;20468;-68
2023/01/11 15:05:04;;;;;;;57.27;2.70;;;;;;;;;;5010098;28;20485;-67
2023/01/11 15:07:35;;;;;;;57.27;2.50;;;;;;;;;;5063654;28;20459;-67
2023/01/11 15:10:04;;;;;;;57.07;2.83;;;;;;;;;;5071498;28;20797;-67
2023/01/11 15:12:33;;;;;;;57.27;2.60;;;;;;;;;;5072119;28;20566;-67
2023/01/11 15:15:04;;;;;;;56.97;2.27;;;;;;;;;;5072050;28;20451;-67
2023/01/11 15:20:17;;;;;;;58.60;2.60;;;;;;;;;;5071259;28;20419;-67